Time;durP1;ratioP1;P1;durP2;ratioP2;P2;SDS_P1;SDS_P2;PMS_P1;PMS_P2;Temp;Humidity;BMP_temperature;BMP_pressure;BME280_temperature;BME280_humidity;BME280_pressure;Samples;Min_cycle;Max_cycle;Signal;HPM_P1;HPM_P2
2022/10/26 00:02:46;;;;;;;5.80;1.40;;;11.30;99.90;;;;;;7319979;32;20141;-60
2022/10/26 00:06:48;;;;;;;3.78;1.20;;;11.30;99.90;;;;;;7319762;32;20187;-60
2022/10/26 00:10:50;;;;;;;5.05;1.08;;;11.30;99.90;;;;;;7319659;32;20240;-60
2022/10/26 00:14:51;;;;;;;4.47;0.95;;;11.40;99.90;;;;;;7320443;32;20138;-60
2022/10/26 00:18:53;;;;;;;7.43;1.10;;;11.50;99.90;;;;;;7318564;32;20607;-60
2022/10/26 00:22:55;;;;;;;6.50;0.98;;;11.50;99.90;;;;;;7319161;32;20139;-60
2022/10/26 00:26:57;;;;;;;4.40;1.10;;;11.60;99.90;;;;;;7320982;32;20145;-61
2022/10/26 00:31:04;;;;;;;7.05;1.20;;;11.70;99.90;;;;;;7316062;32;20245;-60
2022/10/26 00:35:06;;;;;;;2.90;1.10;;;11.80;99.90;;;;;;7317146;32;20138;-59
2022/10/26 00:39:24;;;;;;;5.95;1.33;;;11.90;99.90;;;;;;7311814;32;20107;-60
2022/10/26 00:43:26;;;;;;;4.57;1.62;;;11.90;99.90;;;;;;7312721;32;20187;-59
2022/10/26 00:47:46;;;;;;;2.75;1.30;;;12.00;99.90;;;;;;7316157;32;20146;-60
2022/10/26 00:51:51;;;;;;;4.15;1.33;;;12.00;99.90;;;;;;7323276;32;20133;-60
2022/10/26 00:55:53;;;;;;;3.10;1.40;;;11.90;99.90;;;;;;7315586;32;20180;-60
2022/10/26 00:59:57;;;;;;;4.40;1.05;;;12.10;99.90;;;;;;7322354;32;20107;-59
2022/10/26 01:03:59;;;;;;;4.70;1.27;;;12.10;99.90;;;;;;7318199;32;20145;-61
2022/10/26 01:08:01;;;;;;;3.53;0.98;;;12.00;99.90;;;;;;7321697;32;20308;-60
2022/10/26 01:12:04;;;;;;;3.47;1.00;;;12.00;99.90;;;;;;7314592;32;20133;-59
2022/10/26 01:16:56;;;;;;;3.47;0.93;;;12.00;99.90;;;;;;7320784;32;20146;-59
2022/10/26 01:21:07;;;;;;;5.50;1.30;;;12.10;99.90;;;;;;7299396;32;20131;-60
2022/10/26 01:25:18;;;;;;;7.20;1.05;;;12.00;99.90;;;;;;7315687;32;20456;-61
2022/10/26 01:29:31;;;;;;;3.42;1.42;;;12.10;99.90;;;;;;7318910;32;20456;-60
2022/10/26 01:33:38;;;;;;;4.87;1.52;;;12.10;99.90;;;;;;7313137;32;20195;-59
2022/10/26 01:38:07;;;;;;;5.57;1.40;;;12.10;99.90;;;;;;7317137;32;20108;-59
2022/10/26 01:42:12;;;;;;;8.23;1.50;;;12.20;99.90;;;;;;7325473;32;20218;-59
2022/10/26 01:46:16;;;;;;;3.85;1.33;;;12.20;99.90;;;;;;7322783;32;20221;-58
2022/10/26 01:50:19;;;;;;;8.40;1.20;;;12.30;99.90;;;;;;7320807;32;20494;-58
2022/10/26 01:54:21;;;;;;;7.35;1.15;;;12.30;99.90;;;;;;7313027;32;20202;-58
2022/10/26 01:58:57;;;;;;;6.78;1.10;;;12.50;99.90;;;;;;7317082;32;20109;-59
2022/10/26 02:03:11;;;;;;;8.05;1.30;;;12.50;99.90;;;;;;7322312;32;20154;-58
2022/10/26 02:07:46;;;;;;;7.03;1.40;;;12.50;99.90;;;;;;7327220;32;20141;-58
2022/10/26 02:11:51;;;;;;;4.75;0.95;;;12.60;99.90;;;;;;7311219;32;20164;-60
2022/10/26 02:16:13;;;;;;;9.57;1.37;;;12.60;99.90;;;;;;7318452;32;20111;-58
2022/10/26 02:20:25;;;;;;;3.47;1.48;;;12.60;99.90;;;;;;7317962;32;20112;-58
2022/10/26 02:24:28;;;;;;;6.50;1.30;;;12.60;99.90;;;;;;7318858;32;20133;-60
2022/10/26 02:28:35;;;;;;;4.30;1.00;;;12.70;99.90;;;;;;7315026;32;20528;-58
2022/10/26 02:32:42;;;;;;;5.07;1.20;;;12.70;99.90;;;;;;7307454;32;20111;-60
2022/10/26 02:36:48;;;;;;;5.37;0.90;;;12.70;99.90;;;;;;7311717;32;20203;-58
2022/10/26 02:40:51;;;;;;;3.20;1.00;;;12.70;99.90;;;;;;7314271;32;20203;-58
2022/10/26 02:45:03;;;;;;;8.63;1.30;;;12.70;99.90;;;;;;7321113;32;20134;-58
2022/10/26 02:49:05;;;;;;;2.15;1.00;;;12.80;99.90;;;;;;7327550;32;20139;-58
2022/10/26 02:53:24;;;;;;;3.67;1.00;;;12.80;99.90;;;;;;7327593;32;20112;-58
2022/10/26 02:57:39;;;;;;;4.80;1.30;;;12.90;99.90;;;;;;7321890;32;20115;-58
2022/10/26 03:01:42;;;;;;;4.12;1.10;;;12.80;99.90;;;;;;7312963;32;20357;-58
2022/10/26 03:05:44;;;;;;;7.37;1.40;;;12.90;99.90;;;;;;7316494;32;20290;-58
2022/10/26 03:09:46;;;;;;;5.82;1.30;;;13.00;99.90;;;;;;7323350;32;20554;-58
2022/10/26 03:13:48;;;;;;;5.62;0.93;;;13.00;99.90;;;;;;7315581;32;20153;-58
2022/10/26 03:17:49;;;;;;;3.12;0.93;;;13.00;99.90;;;;;;7314336;32;20222;-60
2022/10/26 03:21:51;;;;;;;5.65;0.90;;;13.00;99.90;;;;;;7315605;32;20211;-58
2022/10/26 03:25:57;;;;;;;6.85;1.30;;;13.10;99.90;;;;;;7313621;32;20146;-59
2022/10/26 03:29:58;;;;;;;6.95;1.00;;;13.20;99.90;;;;;;7318065;32;20119;-58
2022/10/26 03:34:00;;;;;;;4.78;1.10;;;13.20;99.90;;;;;;7314279;32;20129;-58
2022/10/26 03:38:02;;;;;;;4.93;1.20;;;13.20;99.90;;;;;;7316767;32;20112;-58
2022/10/26 03:42:03;;;;;;;7.20;1.15;;;13.20;99.90;;;;;;7321532;32;20138;-58
2022/10/26 03:46:05;;;;;;;5.85;1.10;;;13.30;99.90;;;;;;7319145;32;20133;-59
2022/10/26 03:50:07;;;;;;;4.22;1.10;;;13.30;99.90;;;;;;7315132;32;20107;-60
2022/10/26 03:54:09;;;;;;;6.10;1.10;;;13.30;99.90;;;;;;7314334;32;20269;-59
2022/10/26 03:58:11;;;;;;;5.95;1.10;;;13.40;99.90;;;;;;7319638;32;20206;-58
2022/10/26 04:02:14;;;;;;;5.03;0.85;;;13.40;99.90;;;;;;7317284;32;20175;-58
2022/10/26 04:06:15;;;;;;;3.47;0.80;;;13.40;99.90;;;;;;7318288;32;20487;-58
2022/10/26 04:10:17;;;;;;;3.60;1.00;;;13.40;99.90;;;;;;7313193;32;20239;-60
2022/10/26 04:14:19;;;;;;;6.03;1.20;;;13.40;99.90;;;;;;7322749;32;20448;-58
2022/10/26 04:18:20;;;;;;;7.35;1.50;;;13.40;99.90;;;;;;7312149;32;20749;-59
2022/10/26 04:22:22;;;;;;;3.08;0.90;;;13.50;99.90;;;;;;7318050;32;20137;-60
2022/10/26 04:26:24;;;;;;;4.62;1.23;;;13.60;99.90;;;;;;7319049;32;20141;-58
2022/10/26 04:30:26;;;;;;;5.55;1.23;;;13.60;99.90;;;;;;7322169;32;20157;-59
2022/10/26 04:34:27;;;;;;;3.60;1.20;;;13.80;99.90;;;;;;7322124;32;20103;-60
2022/10/26 04:38:29;;;;;;;3.70;1.20;;;13.80;99.90;;;;;;7322004;32;20115;-58
2022/10/26 04:42:38;;;;;;;5.25;1.17;;;13.70;99.90;;;;;;7322215;32;20222;-58
2022/10/26 04:46:40;;;;;;;7.68;1.30;;;13.80;99.90;;;;;;7321738;32;20123;-58
2022/10/26 04:50:42;;;;;;;4.85;1.20;;;13.80;99.90;;;;;;7317567;32;20196;-58
2022/10/26 04:54:43;;;;;;;4.75;0.95;;;13.90;99.90;;;;;;7318104;32;20141;-58
2022/10/26 04:58:45;;;;;;;4.50;1.30;;;13.80;99.90;;;;;;7324494;32;20137;-58
2022/10/26 05:02:47;;;;;;;2.50;1.15;;;13.90;99.90;;;;;;7318600;32;20111;-59
2022/10/26 05:06:51;;;;;;;2.85;0.90;;;13.90;99.90;;;;;;7317388;32;20854;-59
2022/10/26 05:10:54;;;;;;;2.33;1.00;;;13.90;99.90;;;;;;7315717;32;20137;-58
2022/10/26 05:14:57;;;;;;;6.28;1.40;;;13.90;99.90;;;;;;7324132;32;20480;-58
2022/10/26 05:18:59;;;;;;;5.18;1.27;;;13.90;99.90;;;;;;7321284;32;20137;-57
2022/10/26 05:23:03;;;;;;;2.60;0.98;;;13.80;99.90;;;;;;7326463;32;20111;-57
2022/10/26 05:27:05;;;;;;;3.97;1.20;;;13.80;99.90;;;;;;7320188;32;20203;-58
2022/10/26 05:31:06;;;;;;;6.62;1.00;;;13.80;99.90;;;;;;7316020;32;20108;-58
2022/10/26 05:35:08;;;;;;;9.65;1.30;;;13.80;99.90;;;;;;7316675;32;20126;-61
2022/10/26 05:39:10;;;;;;;5.75;1.00;;;13.90;99.90;;;;;;7322507;32;20226;-59
2022/10/26 05:43:11;;;;;;;5.15;1.50;;;13.80;99.90;;;;;;7315794;32;20220;-59
2022/10/26 05:47:13;;;;;;;3.15;1.37;;;13.80;99.90;;;;;;7324869;32;20225;-59
2022/10/26 05:51:15;;;;;;;4.97;1.10;;;13.80;99.90;;;;;;7311214;32;20181;-59
2022/10/26 05:55:17;;;;;;;2.53;1.10;;;13.70;99.90;;;;;;7316789;32;20112;-58
2022/10/26 05:59:19;;;;;;;4.35;1.20;;;13.60;99.90;;;;;;7322907;32;20133;-60
2022/10/26 06:03:21;;;;;;;7.65;2.60;;;13.60;99.90;;;;;;7319410;32;20206;-60
2022/10/26 06:07:23;;;;;;;2.75;1.00;;;13.60;99.90;;;;;;7324185;32;20141;-58
2022/10/26 06:11:25;;;;;;;3.80;1.20;;;13.70;99.90;;;;;;7318151;32;20150;-59
2022/10/26 06:15:30;;;;;;;3.75;1.05;;;13.70;99.90;;;;;;7313542;32;20187;-60
2022/10/26 06:19:50;;;;;;;3.25;0.77;;;13.70;99.90;;;;;;7312056;32;20315;-62
2022/10/26 06:24:00;;;;;;;3.83;1.10;;;13.70;99.90;;;;;;7307997;32;20225;-63
2022/10/26 06:28:05;;;;;;;1.83;0.60;;;13.70;99.90;;;;;;7318437;32;20205;-63
2022/10/26 06:32:08;;;;;;;4.95;0.75;;;13.60;99.90;;;;;;7308339;32;20122;-62
2022/10/26 06:36:25;;;;;;;4.12;0.75;;;13.60;99.90;;;;;;7314638;32;20769;-63
2022/10/26 06:40:31;;;;;;;4.93;1.10;;;13.60;99.90;;;;;;7313548;32;20111;-63
2022/10/26 06:44:33;;;;;;;2.53;0.98;;;13.70;99.90;;;;;;7318872;32;20805;-61
2022/10/26 06:48:47;;;;;;;3.03;0.80;;;13.70;99.90;;;;;;7303602;32;20169;-63
2022/10/26 06:53:24;;;;;;;4.68;0.80;;;13.70;99.90;;;;;;7313478;32;21263;-63
2022/10/26 06:57:34;;;;;;;1.67;0.75;;;13.90;99.90;;;;;;7316527;32;20116;-62
2022/10/26 07:01:36;;;;;;;4.47;0.80;;;13.90;99.90;;;;;;7310693;32;20116;-63
2022/10/26 07:07:25;;;;;;;7.65;1.08;;;13.90;99.90;;;;;;7411966;31;20138;-61
2022/10/26 07:11:27;;;;;;;5.37;1.00;;;14.00;99.90;;;;;;7384081;32;20209;-64
2022/10/26 07:15:28;;;;;;;5.82;0.73;;;14.00;99.90;;;;;;7363718;32;20433;-63
2022/10/26 07:19:30;;;;;;;3.22;0.70;;;14.10;99.90;;;;;;7363960;32;20118;-63
2022/10/26 07:23:32;;;;;;;4.32;0.90;;;14.10;99.90;;;;;;7364355;32;20780;-62
2022/10/26 07:27:34;;;;;;;2.83;0.80;;;14.20;99.90;;;;;;7366113;32;20190;-62
2022/10/26 07:31:36;;;;;;;3.25;1.35;;;14.30;99.90;;;;;;7369324;32;20146;-65
2022/10/26 07:35:38;;;;;;;3.25;1.00;;;14.30;99.90;;;;;;7362177;32;20228;-64
2022/10/26 07:39:40;;;;;;;2.45;1.10;;;14.40;99.90;;;;;;7363085;32;20126;-63
2022/10/26 07:43:44;;;;;;;4.07;0.90;;;14.50;99.90;;;;;;7368849;32;20099;-64
2022/10/26 07:47:45;;;;;;;3.00;1.23;;;14.50;99.90;;;;;;7369937;32;20511;-64
2022/10/26 07:51:47;;;;;;;2.67;0.82;;;14.60;99.90;;;;;;7367661;32;20103;-64
2022/10/26 07:55:56;;;;;;;6.95;1.42;;;14.60;99.90;;;;;;7366031;32;20226;-63
2022/10/26 07:59:57;;;;;;;3.00;1.00;;;14.60;99.90;;;;;;7368719;32;20787;-65
2022/10/26 08:03:59;;;;;;;3.75;1.02;;;14.70;99.90;;;;;;7361789;32;20769;-63
2022/10/26 08:08:01;;;;;;;1.55;0.80;;;14.60;99.90;;;;;;7366713;32;20194;-64
2022/10/26 08:12:02;;;;;;;5.35;1.10;;;14.50;99.90;;;;;;7363141;32;20127;-62
2022/10/26 08:16:05;;;;;;;2.97;1.10;;;14.40;99.90;;;;;;7360354;32;20129;-63
2022/10/26 08:20:07;;;;;;;4.10;0.85;;;14.20;99.90;;;;;;7350271;32;20202;-63
2022/10/26 08:24:09;;;;;;;3.35;1.00;;;14.30;99.90;;;;;;7354181;32;20714;-63
2022/10/26 08:28:10;;;;;;;5.70;1.02;;;14.40;99.90;;;;;;7355976;32;20194;-62
2022/10/26 08:32:12;;;;;;;3.45;1.30;;;14.60;99.90;;;;;;7346435;32;20641;-62
2022/10/26 08:36:20;;;;;;;4.50;1.05;;;14.70;99.90;;;;;;7347790;32;20214;-62
2022/10/26 08:40:25;;;;;;;4.97;1.20;;;14.70;99.90;;;;;;7345808;32;20276;-62
2022/10/26 08:44:34;;;;;;;6.07;1.20;;;14.80;99.90;;;;;;7344316;32;20115;-63
2022/10/26 08:48:40;;;;;;;9.98;1.45;;;14.90;99.90;;;;;;7347516;32;20103;-63
2022/10/26 08:53:06;;;;;;;8.15;1.17;;;15.00;99.90;;;;;;7348837;32;20844;-62
2022/10/26 08:57:20;;;;;;;6.20;1.10;;;15.10;99.90;;;;;;7351180;32;20156;-65
2022/10/26 09:01:22;;;;;;;6.18;1.23;;;15.30;99.90;;;;;;7345094;32;20202;-65
2022/10/26 09:06:06;;;;;;;5.25;1.10;;;15.30;99.90;;;;;;7351252;32;20139;-62
2022/10/26 09:10:28;;;;;;;7.07;0.98;;;15.40;99.90;;;;;;7352404;32;20133;-64
2022/10/26 09:14:55;;;;;;;4.47;1.60;;;15.70;99.90;;;;;;7349268;32;20186;-63
2022/10/26 09:19:18;;;;;;;2.87;1.00;;;16.00;99.90;;;;;;7344636;32;20127;-61
2022/10/26 09:23:51;;;;;;;6.30;1.17;;;16.00;99.90;;;;;;7350593;32;20241;-62
2022/10/26 09:28:00;;;;;;;3.42;1.20;;;16.10;99.90;;;;;;7347896;32;20121;-64
2022/10/26 09:32:04;;;;;;;2.85;1.17;;;16.20;99.90;;;;;;7346066;32;20536;-64
2022/10/26 09:36:11;;;;;;;2.83;1.20;;;16.30;99.90;;;;;;7346826;32;20138;-63
2022/10/26 09:40:17;;;;;;;6.57;1.20;;;16.30;99.90;;;;;;7346280;32;20111;-64
2022/10/26 09:44:58;;;;;;;8.63;1.95;;;16.50;99.90;;;;;;7342400;32;20100;-61
2022/10/26 09:49:09;;;;;;;3.40;1.35;;;16.90;99.90;;;;;;7340307;32;20122;-62
2022/10/26 09:53:11;;;;;;;5.30;1.40;;;16.90;99.90;;;;;;7342158;32;20504;-63
2022/10/26 09:57:16;;;;;;;8.25;1.20;;;16.90;99.90;;;;;;7341017;32;20178;-63
2022/10/26 10:01:31;;;;;;;4.00;1.23;;;16.90;99.90;;;;;;7342250;32;20226;-62
2022/10/26 10:05:40;;;;;;;5.53;1.48;;;17.00;99.90;;;;;;7352040;32;20504;-63
2022/10/26 10:10:19;;;;;;;7.05;1.55;;;17.20;99.90;;;;;;7347295;32;20104;-63
2022/10/26 10:14:23;;;;;;;5.70;1.60;;;17.00;99.90;;;;;;7349667;32;20132;-62
2022/10/26 10:18:25;;;;;;;6.68;1.67;;;17.00;99.90;;;;;;7342598;32;20145;-62
2022/10/26 10:22:27;;;;;;;7.65;1.60;;;17.10;99.90;;;;;;7342825;32;20528;-63
2022/10/26 10:26:28;;;;;;;5.30;1.35;;;17.10;99.90;;;;;;7346641;32;20206;-63
2022/10/26 10:30:32;;;;;;;7.82;1.48;;;17.30;99.90;;;;;;7340384;32;20111;-62
2022/10/26 10:34:34;;;;;;;5.07;1.48;;;17.40;99.90;;;;;;7339941;32;20203;-65
2022/10/26 10:38:42;;;;;;;4.40;1.50;;;17.60;99.90;;;;;;7346568;32;20129;-63
2022/10/26 10:42:46;;;;;;;7.32;1.90;;;17.60;99.90;;;;;;7339491;32;20258;-62
2022/10/26 10:46:48;;;;;;;7.37;1.90;;;17.80;99.90;;;;;;7341013;32;20098;-64
2022/10/26 10:51:03;;;;;;;4.65;1.70;;;17.80;99.90;;;;;;7344477;32;20130;-62
2022/10/26 10:55:14;;;;;;;7.80;1.80;;;17.80;99.90;;;;;;7348492;32;20762;-63
2022/10/26 10:59:38;;;;;;;7.78;2.00;;;17.90;99.90;;;;;;7344255;32;20175;-63
2022/10/26 11:04:13;;;;;;;5.40;1.80;;;17.90;99.90;;;;;;7346114;32;20100;-62
2022/10/26 11:08:25;;;;;;;5.97;1.90;;;18.20;99.90;;;;;;7346091;32;20561;-62
2022/10/26 11:12:32;;;;;;;7.57;2.00;;;18.10;99.90;;;;;;7342138;32;20104;-63
2022/10/26 11:16:54;;;;;;;3.85;1.55;;;18.20;99.90;;;;;;7352482;32;20229;-63
2022/10/26 11:21:21;;;;;;;6.97;1.73;;;18.20;99.90;;;;;;7348251;32;20115;-62
2022/10/26 11:25:36;;;;;;;5.62;2.10;;;18.30;99.90;;;;;;7341516;32;20100;-63
2022/10/26 11:30:06;;;;;;;4.72;1.70;;;18.60;99.90;;;;;;7343503;32;20475;-62
2022/10/26 11:34:17;;;;;;;5.43;1.40;;;18.70;99.90;;;;;;7347402;32;20099;-63
2022/10/26 11:38:48;;;;;;;6.12;1.85;;;18.60;99.90;;;;;;7343468;32;20130;-62
2022/10/26 11:43:07;;;;;;;5.47;1.40;;;18.80;99.90;;;;;;7347068;32;20111;-62
2022/10/26 11:47:22;;;;;;;4.12;1.25;;;18.80;99.90;;;;;;7344477;32;20100;-65
2022/10/26 11:51:58;;;;;;;3.75;1.00;;;19.00;99.90;;;;;;7338986;32;20325;-61
2022/10/26 11:56:02;;;;;;;4.93;1.15;;;19.10;99.90;;;;;;7348368;32;20110;-64
2022/10/26 12:00:13;;;;;;;5.82;1.30;;;19.20;99.90;;;;;;7349562;32;20931;-62
2022/10/26 12:04:17;;;;;;;4.70;1.12;;;19.20;99.90;;;;;;7349295;32;20205;-65
2022/10/26 12:08:31;;;;;;;3.22;0.93;;;19.30;99.90;;;;;;7349820;32;20153;-64
2022/10/26 12:13:14;;;;;;;5.40;1.58;;;19.30;99.90;;;;;;7349996;32;20210;-62
2022/10/26 12:17:28;;;;;;;4.53;1.05;;;19.50;99.90;;;;;;7335027;32;20504;-62
2022/10/26 12:21:32;;;;;;;3.95;1.05;;;19.50;99.90;;;;;;7345870;32;20183;-62
2022/10/26 12:25:33;;;;;;;5.20;0.90;;;19.60;99.90;;;;;;7344098;32;20234;-62
2022/10/26 12:29:47;;;;;;;5.47;1.02;;;19.50;99.90;;;;;;7342533;32;20107;-63
2022/10/26 12:33:50;;;;;;;6.20;0.73;;;19.70;99.90;;;;;;7345316;32;20114;-64
2022/10/26 12:37:55;;;;;;;5.20;1.10;;;19.80;99.90;;;;;;7331609;32;20220;-63
2022/10/26 12:42:09;;;;;;;3.03;1.23;;;20.00;99.90;;;;;;7342004;32;20198;-62
2022/10/26 12:46:17;;;;;;;4.20;0.90;;;20.00;99.90;;;;;;7347323;32;20103;-62
2022/10/26 12:50:23;;;;;;;1.73;0.70;;;20.00;99.90;;;;;;7348944;32;20134;-61
2022/10/26 12:54:40;;;;;;;4.63;1.00;;;19.90;99.90;;;;;;7340706;32;20108;-62
2022/10/26 12:58:53;;;;;;;;;;;19.90;99.90;;;;;;7346068;32;20770;-57
2022/10/26 13:03:32;;;;;;;4.45;0.80;;;19.80;99.90;;;;;;7339312;32;20045;-58
2022/10/26 13:07:37;;;;;;;3.78;1.05;;;20.00;99.90;;;;;;7342769;32;20107;-61
2022/10/26 13:11:46;;;;;;;2.78;1.00;;;20.10;99.90;;;;;;7350487;32;20126;-60
2022/10/26 13:15:54;;;;;;;2.12;0.80;;;20.20;99.90;;;;;;7341721;32;20126;-60
2022/10/26 13:19:59;;;;;;;4.40;1.25;;;20.60;99.90;;;;;;7340999;32;20237;-60
2022/10/26 13:24:07;;;;;;;5.53;1.00;;;20.80;99.90;;;;;;7342514;32;20100;-63
2022/10/26 13:28:44;;;;;;;3.50;0.98;;;20.80;99.90;;;;;;7335982;32;20128;-63
2022/10/26 13:32:54;;;;;;;7.70;1.10;;;20.70;99.90;;;;;;7324676;32;20707;-63
2022/10/26 13:37:04;;;;;;;2.55;0.82;;;20.80;99.90;;;;;;7344690;32;20118;-63
2022/10/26 13:41:16;;;;;;;3.12;1.00;;;20.90;99.90;;;;;;7346724;32;20141;-57
2022/10/26 13:45:30;;;;;;;3.03;1.23;;;21.10;99.90;;;;;;7340725;32;20236;-58
2022/10/26 13:49:40;;;;;;;4.70;1.10;;;21.50;99.90;;;;;;7338857;32;20171;-57
2022/10/26 13:53:49;;;;;;;3.67;0.98;;;21.60;99.90;;;;;;7344129;32;20287;-57
2022/10/26 13:58:20;;;;;;;2.70;0.90;;;21.60;99.90;;;;;;7341406;32;20205;-58
2022/10/26 14:02:25;;;;;;;6.62;1.30;;;21.50;99.90;;;;;;7344888;32;20193;-62
2022/10/26 14:06:35;;;;;;;7.25;1.02;;;21.70;99.90;;;;;;7347639;32;20190;-62
2022/10/26 14:10:40;;;;;;;3.53;1.20;;;21.70;99.90;;;;;;7336662;32;20099;-62
2022/10/26 14:14:42;;;;;;;4.10;0.90;;;21.70;99.90;;;;;;7346479;32;20708;-62
2022/10/26 14:18:45;;;;;;;4.57;0.90;;;21.40;99.90;;;;;;7343133;32;20904;-61
2022/10/26 14:22:47;;;;;;;5.30;1.00;;;21.10;99.90;;;;;;7341026;32;20089;-57
2022/10/26 14:26:49;;;;;;;3.42;1.00;;;20.80;99.90;;;;;;7339728;32;20224;-57
2022/10/26 14:30:51;;;;;;;7.93;1.00;;;20.70;99.90;;;;;;7345147;32;20528;-57
2022/10/26 14:34:53;;;;;;;4.12;1.20;;;20.60;99.90;;;;;;7346231;32;20230;-57
2022/10/26 14:39:06;;;;;;;3.42;0.80;;;20.40;99.90;;;;;;7342457;32;20095;-57
2022/10/26 14:43:17;;;;;;;4.93;1.20;;;20.20;99.90;;;;;;7344266;32;20099;-57
2022/10/26 14:47:24;;;;;;;6.45;1.08;;;20.10;99.90;;;;;;7340966;32;20519;-62
2022/10/26 14:51:29;;;;;;;3.12;0.90;;;19.90;99.90;;;;;;7342055;32;20201;-61
2022/10/26 14:55:42;;;;;;;5.00;0.90;;;19.90;99.90;;;;;;7334941;32;20179;-62
2022/10/26 14:59:59;;;;;;;4.15;0.95;;;19.80;99.90;;;;;;7341047;32;20630;-61
2022/10/26 15:04:04;;;;;;;7.12;0.80;;;19.70;99.90;;;;;;7346031;32;20111;-62
2022/10/26 15:08:45;;;;;;;4.65;0.80;;;19.50;99.90;;;;;;7339898;32;20125;-61
2022/10/26 15:13:06;;;;;;;2.80;0.80;;;19.50;99.90;;;;;;7350403;32;20103;-61
2022/10/26 15:17:21;;;;;;;6.12;1.00;;;19.40;99.90;;;;;;7348491;32;20175;-61
2022/10/26 15:21:33;;;;;;;4.95;0.85;;;19.20;99.90;;;;;;7348252;32;20230;-61
2022/10/26 15:25:34;;;;;;;2.58;0.77;;;19.00;99.90;;;;;;7347653;32;20096;-61
2022/10/26 15:29:45;;;;;;;2.42;0.85;;;18.90;99.90;;;;;;7338953;32;20542;-60
2022/10/26 15:33:49;;;;;;;4.82;0.90;;;18.80;99.90;;;;;;7356853;32;20215;-61
2022/10/26 15:37:54;;;;;;;3.67;0.90;;;18.60;99.90;;;;;;7359802;32;20125;-61
2022/10/26 15:41:55;;;;;;;2.70;0.80;;;18.40;99.90;;;;;;7354251;32;20104;-61
2022/10/26 15:45:57;;;;;;;3.12;0.88;;;18.20;99.90;;;;;;7354716;32;20126;-61
2022/10/26 15:49:59;;;;;;;4.15;1.30;;;18.10;99.90;;;;;;7349770;32;20131;-61
2022/10/26 15:54:03;;;;;;;3.60;0.95;;;17.90;99.90;;;;;;7348825;32;20171;-61
2022/10/26 15:58:04;;;;;;;3.62;1.30;;;17.70;99.90;;;;;;7343390;32;20638;-61
2022/10/26 16:02:13;;;;;;;6.53;1.23;;;17.50;99.90;;;;;;7343836;32;20107;-61
2022/10/26 16:06:33;;;;;;;4.70;0.95;;;17.20;99.90;;;;;;7342711;32;20614;-62
2022/10/26 16:10:35;;;;;;;5.45;1.00;;;17.10;99.90;;;;;;7346971;32;20102;-61
2022/10/26 16:14:38;;;;;;;3.55;1.02;;;16.90;99.90;;;;;;7347848;32;20099;-61
2022/10/26 16:18:59;;;;;;;4.15;1.15;;;16.80;99.90;;;;;;7352334;32;20114;-61
2022/10/26 16:23:21;;;;;;;4.37;1.00;;;16.70;99.90;;;;;;7345902;32;20681;-61
2022/10/26 16:27:23;;;;;;;1.98;0.93;;;16.50;99.90;;;;;;7345638;32;20186;-60
2022/10/26 16:31:24;;;;;;;4.22;0.93;;;16.40;99.90;;;;;;7334317;32;20099;-58
2022/10/26 16:35:26;;;;;;;4.37;1.33;;;16.30;99.90;;;;;;7342429;32;20134;-58
2022/10/26 16:39:28;;;;;;;3.33;1.20;;;16.10;99.90;;;;;;7352427;32;20104;-61
2022/10/26 16:43:31;;;;;;;2.08;0.93;;;16.10;99.90;;;;;;7343587;32;20099;-61
2022/10/26 16:47:38;;;;;;;6.87;1.30;;;15.90;99.90;;;;;;7352233;32;21641;-61
2022/10/26 16:51:40;;;;;;;5.80;1.60;;;15.70;99.90;;;;;;7335607;32;20095;-61
2022/10/26 16:55:42;;;;;;;3.87;1.70;;;15.50;99.90;;;;;;7340094;32;20104;-61
2022/10/26 16:59:44;;;;;;;7.62;1.60;;;15.30;99.90;;;;;;7344641;32;20129;-61
2022/10/26 17:03:48;;;;;;;7.05;1.35;;;15.10;99.90;;;;;;7351703;32;20202;-63
2022/10/26 17:07:49;;;;;;;14.57;1.50;;;15.00;99.90;;;;;;7349684;32;20191;-64
2022/10/26 17:11:52;;;;;;;12.37;1.80;;;14.80;99.90;;;;;;7353716;32;20223;-64
2022/10/26 17:15:53;;;;;;;11.50;1.90;;;14.60;99.90;;;;;;7350333;32;20475;-64
2022/10/26 17:19:55;;;;;;;25.62;16.45;;;14.50;99.90;;;;;;7348847;32;20121;-64
2022/10/26 17:23:57;;;;;;;23.00;6.55;;;14.40;99.90;;;;;;7351944;32;20130;-64
2022/10/26 17:28:00;;;;;;;13.15;2.95;;;14.30;99.90;;;;;;7344393;32;20204;-64
2022/10/26 17:32:02;;;;;;;13.82;4.68;;;14.20;99.90;;;;;;7347616;32;20131;-62
2022/10/26 17:36:05;;;;;;;22.92;12.25;;;14.20;99.90;;;;;;7348292;32;20519;-61
2022/10/26 17:40:08;;;;;;;16.73;4.70;;;14.00;99.90;;;;;;7350984;32;20107;-62
2022/10/26 17:44:09;;;;;;;15.48;3.50;;;13.90;99.90;;;;;;7351057;32;20096;-61
2022/10/26 17:48:11;;;;;;;10.68;2.72;;;13.90;99.90;;;;;;7347060;32;20200;-62
2022/10/26 17:52:13;;;;;;;15.73;3.33;;;13.80;99.90;;;;;;7347548;32;20170;-62
2022/10/26 17:56:21;;;;;;;18.58;4.03;;;13.70;99.90;;;;;;7344356;32;20104;-61
2022/10/26 18:00:23;;;;;;;8.82;3.33;;;13.60;99.90;;;;;;7345170;32;20262;-62
2022/10/26 18:04:25;;;;;;;17.25;3.90;;;13.50;99.90;;;;;;7348342;32;20126;-62
2022/10/26 18:08:30;;;;;;;6.50;3.00;;;13.60;99.90;;;;;;7348598;32;20121;-63
2022/10/26 18:12:31;;;;;;;12.23;3.97;;;13.70;99.90;;;;;;7344859;32;20122;-65
2022/10/26 18:16:33;;;;;;;9.15;3.30;;;13.70;99.90;;;;;;7351336;32;20341;-63
2022/10/26 18:20:35;;;;;;;19.17;4.15;;;13.70;99.90;;;;;;7349868;32;20122;-63
2022/10/26 18:24:37;;;;;;;14.55;4.00;;;13.60;99.90;;;;;;7349955;32;20099;-60
2022/10/26 18:28:39;;;;;;;13.20;3.78;;;13.60;99.90;;;;;;7343637;32;20117;-59
2022/10/26 18:32:40;;;;;;;16.05;3.80;;;13.60;99.90;;;;;;7341857;32;20167;-60
2022/10/26 18:36:42;;;;;;;17.75;4.03;;;13.50;99.90;;;;;;7341107;32;20673;-60
2022/10/26 18:40:51;;;;;;;12.45;4.40;;;13.40;99.90;;;;;;7344886;32;20190;-61
2022/10/26 18:44:55;;;;;;;17.75;3.62;;;13.30;99.90;;;;;;7344785;32;20107;-61
2022/10/26 18:48:59;;;;;;;11.23;2.37;;;13.30;99.90;;;;;;7344163;32;20197;-61
2022/10/26 18:53:01;;;;;;;14.13;3.37;;;13.10;99.90;;;;;;7347011;32;20120;-61
2022/10/26 18:57:03;;;;;;;9.65;2.03;;;13.10;99.90;;;;;;7352308;32;20156;-62
2022/10/26 19:01:05;;;;;;;12.63;2.80;;;13.00;99.90;;;;;;7343314;32;20119;-59
2022/10/26 19:05:08;;;;;;;15.88;2.30;;;13.00;99.90;;;;;;7354393;32;20106;-60
2022/10/26 19:09:09;;;;;;;18.70;2.70;;;13.00;99.90;;;;;;7344665;32;20130;-60
2022/10/26 19:13:11;;;;;;;10.40;2.62;;;12.90;99.90;;;;;;7343221;32;20106;-61
2022/10/26 19:17:13;;;;;;;9.60;2.25;;;12.80;99.90;;;;;;7344366;32;20104;-62
2022/10/26 19:21:18;;;;;;;11.52;2.70;;;12.70;99.90;;;;;;7347195;32;20111;-60
2022/10/26 19:25:20;;;;;;;10.82;2.97;;;12.70;99.90;;;;;;7345377;32;20133;-61
2022/10/26 19:29:21;;;;;;;5.93;2.62;;;12.60;99.90;;;;;;7345613;32;20266;-61
2022/10/26 19:33:25;;;;;;;9.73;2.80;;;12.50;99.90;;;;;;7348995;32;20138;-61
2022/10/26 19:37:26;;;;;;;13.93;2.67;;;12.50;99.90;;;;;;7348638;32;20107;-61
2022/10/26 19:41:30;;;;;;;17.33;2.25;;;12.40;99.90;;;;;;7334075;32;20293;-61
2022/10/26 19:45:31;;;;;;;14.82;2.50;;;12.30;99.90;;;;;;7340330;32;20524;-62
2022/10/26 19:49:33;;;;;;;4.40;2.30;;;12.30;99.90;;;;;;7341236;32;20375;-63
2022/10/26 19:53:35;;;;;;;10.23;2.92;;;12.20;99.90;;;;;;7340422;32;20141;-62
2022/10/26 19:57:37;;;;;;;9.50;2.62;;;12.20;99.90;;;;;;7343075;32;20127;-62
2022/10/26 20:01:38;;;;;;;27.48;14.20;;;12.10;99.90;;;;;;7337907;32;20144;-62
2022/10/26 20:05:41;;;;;;;22.00;11.52;;;12.00;99.90;;;;;;7344874;32;20115;-62
2022/10/26 20:09:43;;;;;;;15.75;4.90;;;12.00;99.90;;;;;;7354308;32;20137;-63
2022/10/26 20:13:46;;;;;;;9.73;3.22;;;11.90;99.90;;;;;;7348533;32;20213;-62
2022/10/26 20:17:48;;;;;;;12.43;3.50;;;11.90;99.90;;;;;;7354026;32;20103;-62
2022/10/26 20:21:49;;;;;;;11.15;3.15;;;11.80;99.90;;;;;;7350711;32;20138;-61
2022/10/26 20:25:52;;;;;;;8.43;2.92;;;11.80;99.90;;;;;;7352661;32;20252;-64
2022/10/26 20:29:53;;;;;;;8.70;2.78;;;11.80;99.90;;;;;;7346332;32;20577;-61
2022/10/26 20:33:55;;;;;;;7.47;2.55;;;11.70;99.90;;;;;;7346970;32;20137;-61
2022/10/26 20:37:57;;;;;;;10.85;2.80;;;11.70;99.90;;;;;;7341372;32;20111;-62
2022/10/26 20:41:59;;;;;;;11.15;2.80;;;11.70;99.90;;;;;;7343261;32;20111;-60
2022/10/26 20:46:01;;;;;;;13.70;2.70;;;11.70;99.90;;;;;;7348193;32;20116;-60
2022/10/26 20:50:04;;;;;;;9.27;2.80;;;11.70;99.90;;;;;;7340932;32;20178;-61
2022/10/26 20:54:28;;;;;;;14.02;3.45;;;11.70;99.90;;;;;;7350684;32;20107;-61
2022/10/26 20:58:41;;;;;;;8.85;2.60;;;11.70;99.90;;;;;;7342767;32;20132;-60
2022/10/26 21:02:42;;;;;;;8.25;3.00;;;11.70;99.90;;;;;;7337600;32;20119;-61
2022/10/26 21:06:44;;;;;;;4.95;2.42;;;11.60;99.90;;;;;;7347987;32;20197;-61
2022/10/26 21:10:45;;;;;;;10.48;3.03;;;11.60;99.90;;;;;;7345858;32;20531;-61
2022/10/26 21:14:47;;;;;;;9.77;2.80;;;11.60;99.90;;;;;;7352717;32;20165;-61
2022/10/26 21:18:49;;;;;;;6.78;2.30;;;11.60;99.90;;;;;;7350095;32;20153;-60
2022/10/26 21:22:52;;;;;;;15.70;3.03;;;11.60;99.90;;;;;;7348893;32;20142;-60
2022/10/26 21:26:54;;;;;;;6.43;2.50;;;11.60;99.90;;;;;;7341893;32;20104;-61